sensor_id;sensor_type;location;lat;lon;timestamp;P1;durP1;ratioP1;P2;durP2;ratioP2
42726;SDS011;28372;56.832;60.658;2023-08-08T00:00:11;8.68;;;4.68;;
42726;SDS011;28372;56.832;60.658;2023-08-08T00:02:39;10.15;;;4.47;;
42726;SDS011;28372;56.832;60.658;2023-08-08T00:05:08;9.90;;;5.00;;
42726;SDS011;28372;56.832;60.658;2023-08-08T00:07:36;8.80;;;5.03;;
42726;SDS011;28372;56.832;60.658;2023-08-08T00:10:04;8.30;;;4.50;;
42726;SDS011;28372;56.832;60.658;2023-08-08T00:12:32;9.73;;;5.22;;
42726;SDS011;28372;56.832;60.658;2023-08-08T00:15:00;6.97;;;4.22;;
42726;SDS011;28372;56.832;60.658;2023-08-08T00:17:30;7.80;;;4.50;;
42726;SDS011;28372;56.832;60.658;2023-08-08T00:19:57;9.48;;;4.18;;
42726;SDS011;28372;56.832;60.658;2023-08-08T00:22:25;6.88;;;4.13;;
42726;SDS011;28372;56.832;60.658;2023-08-08T00:24:53;8.85;;;4.20;;
42726;SDS011;28372;56.832;60.658;2023-08-08T00:27:21;7.45;;;4.38;;
42726;SDS011;28372;56.832;60.658;2023-08-08T00:29:48;8.40;;;4.43;;
42726;SDS011;28372;56.832;60.658;2023-08-08T00:32:17;8.73;;;4.13;;
42726;SDS011;28372;56.832;60.658;2023-08-08T00:34:45;5.80;;;3.95;;
42726;SDS011;28372;56.832;60.658;2023-08-08T00:37:13;6.47;;;3.92;;
42726;SDS011;28372;56.832;60.658;2023-08-08T00:39:41;7.28;;;4.22;;
42726;SDS011;28372;56.832;60.658;2023-08-08T00:42:13;6.45;;;4.05;;
42726;SDS011;28372;56.832;60.658;2023-08-08T00:44:41;7.53;;;4.10;;
42726;SDS011;28372;56.832;60.658;2023-08-08T00:47:08;6.68;;;3.80;;
42726;SDS011;28372;56.832;60.658;2023-08-08T00:49:37;7.47;;;3.80;;
42726;SDS011;28372;56.832;60.658;2023-08-08T00:52:05;6.78;;;4.07;;
42726;SDS011;28372;56.832;60.658;2023-08-08T00:54:34;7.30;;;3.90;;
42726;SDS011;28372;56.832;60.658;2023-08-08T00:57:02;6.18;;;3.88;;
42726;SDS011;28372;56.832;60.658;2023-08-08T00:59:32;6.15;;;3.65;;
42726;SDS011;28372;56.832;60.658;2023-08-08T01:02:00;6.38;;;3.50;;
42726;SDS011;28372;56.832;60.658;2023-08-08T01:04:28;6.38;;;3.63;;
42726;SDS011;28372;56.832;60.658;2023-08-08T01:09:53;6.18;;;3.58;;
42726;SDS011;28372;56.832;60.658;2023-08-08T01:12:24;6.00;;;3.28;;
42726;SDS011;28372;56.832;60.658;2023-08-08T01:14:53;6.32;;;3.20;;
42726;SDS011;28372;56.832;60.658;2023-08-08T01:17:22;4.80;;;3.00;;
42726;SDS011;28372;56.832;60.658;2023-08-08T01:19:52;6.03;;;3.22;;
42726;SDS011;28372;56.832;60.658;2023-08-08T01:22:24;7.03;;;3.22;;
42726;SDS011;28372;56.832;60.658;2023-08-08T01:24:58;5.65;;;2.92;;
42726;SDS011;28372;56.832;60.658;2023-08-08T01:27:29;5.18;;;2.80;;
42726;SDS011;28372;56.832;60.658;2023-08-08T01:29:56;5.78;;;3.22;;
42726;SDS011;28372;56.832;60.658;2023-08-08T01:32:24;6.13;;;3.25;;
42726;SDS011;28372;56.832;60.658;2023-08-08T01:34:52;6.55;;;3.33;;
42726;SDS011;28372;56.832;60.658;2023-08-08T01:37:22;6.50;;;3.55;;
42726;SDS011;28372;56.832;60.658;2023-08-08T01:39:59;6.22;;;3.53;;
42726;SDS011;28372;56.832;60.658;2023-08-08T01:42:30;5.97;;;3.33;;
42726;SDS011;28372;56.832;60.658;2023-08-08T01:44:59;6.43;;;3.80;;
42726;SDS011;28372;56.832;60.658;2023-08-08T01:47:31;6.75;;;3.70;;
42726;SDS011;28372;56.832;60.658;2023-08-08T01:49:59;7.85;;;3.83;;
42726;SDS011;28372;56.832;60.658;2023-08-08T01:52:29;5.97;;;3.60;;
42726;SDS011;28372;56.832;60.658;2023-08-08T01:54:57;6.70;;;3.63;;
42726;SDS011;28372;56.832;60.658;2023-08-08T01:57:25;6.72;;;3.70;;
42726;SDS011;28372;56.832;60.658;2023-08-08T01:59:53;5.45;;;3.40;;
42726;SDS011;28372;56.832;60.658;2023-08-08T02:02:20;7.30;;;3.83;;
42726;SDS011;28372;56.832;60.658;2023-08-08T02:04:48;7.88;;;3.55;;
42726;SDS011;28372;56.832;60.658;2023-08-08T02:07:16;6.40;;;3.70;;
42726;SDS011;28372;56.832;60.658;2023-08-08T02:09:44;6.28;;;3.60;;
42726;SDS011;28372;56.832;60.658;2023-08-08T02:12:13;6.60;;;3.30;;
42726;SDS011;28372;56.832;60.658;2023-08-08T02:14:41;6.07;;;3.13;;
42726;SDS011;28372;56.832;60.658;2023-08-08T02:17:09;8.93;;;4.28;;
42726;SDS011;28372;56.832;60.658;2023-08-08T02:19:37;7.15;;;3.55;;
42726;SDS011;28372;56.832;60.658;2023-08-08T02:22:04;8.18;;;3.08;;
42726;SDS011;28372;56.832;60.658;2023-08-08T02:24:32;5.93;;;3.10;;
42726;SDS011;28372;56.832;60.658;2023-08-08T02:27:00;7.00;;;3.50;;
42726;SDS011;28372;56.832;60.658;2023-08-08T02:29:29;5.10;;;3.15;;
42726;SDS011;28372;56.832;60.658;2023-08-08T02:31:59;8.38;;;3.90;;
42726;SDS011;28372;56.832;60.658;2023-08-08T02:34:27;5.18;;;3.10;;
42726;SDS011;28372;56.832;60.658;2023-08-08T02:36:55;6.05;;;2.80;;
42726;SDS011;28372;56.832;60.658;2023-08-08T02:39:23;4.32;;;2.40;;
42726;SDS011;28372;56.832;60.658;2023-08-08T02:41:51;6.35;;;2.85;;
42726;SDS011;28372;56.832;60.658;2023-08-08T02:44:19;4.88;;;2.38;;
42726;SDS011;28372;56.832;60.658;2023-08-08T02:46:47;7.82;;;2.88;;
42726;SDS011;28372;56.832;60.658;2023-08-08T02:49:16;5.43;;;2.30;;
42726;SDS011;28372;56.832;60.658;2023-08-08T02:51:44;4.97;;;2.20;;
42726;SDS011;28372;56.832;60.658;2023-08-08T02:54:12;6.50;;;2.40;;
42726;SDS011;28372;56.832;60.658;2023-08-08T02:56:42;5.45;;;2.45;;
42726;SDS011;28372;56.832;60.658;2023-08-08T02:59:11;3.83;;;2.00;;
42726;SDS011;28372;56.832;60.658;2023-08-08T03:01:39;3.65;;;2.00;;
42726;SDS011;28372;56.832;60.658;2023-08-08T03:04:14;2.63;;;1.70;;
42726;SDS011;28372;56.832;60.658;2023-08-08T03:06:42;4.05;;;1.90;;
42726;SDS011;28372;56.832;60.658;2023-08-08T03:09:10;4.78;;;1.88;;
42726;SDS011;28372;56.832;60.658;2023-08-08T03:11:39;3.90;;;1.65;;
42726;SDS011;28372;56.832;60.658;2023-08-08T03:14:12;4.35;;;1.50;;
42726;SDS011;28372;56.832;60.658;2023-08-08T03:16:40;4.68;;;1.52;;
42726;SDS011;28372;56.832;60.658;2023-08-08T03:19:10;3.17;;;1.60;;
42726;SDS011;28372;56.832;60.658;2023-08-08T03:21:38;4.05;;;1.60;;
42726;SDS011;28372;56.832;60.658;2023-08-08T03:24:06;5.25;;;1.70;;
42726;SDS011;28372;56.832;60.658;2023-08-08T03:26:34;3.97;;;1.60;;
42726;SDS011;28372;56.832;60.658;2023-08-08T03:29:01;4.07;;;1.60;;
42726;SDS011;28372;56.832;60.658;2023-08-08T03:31:37;4.18;;;1.60;;
42726;SDS011;28372;56.832;60.658;2023-08-08T03:34:05;3.10;;;1.70;;
42726;SDS011;28372;56.832;60.658;2023-08-08T03:36:33;3.97;;;1.58;;
42726;SDS011;28372;56.832;60.658;2023-08-08T03:39:01;4.18;;;1.75;;
42726;SDS011;28372;56.832;60.658;2023-08-08T03:41:30;2.88;;;1.45;;
42726;SDS011;28372;56.832;60.658;2023-08-08T03:43:59;4.05;;;1.73;;
42726;SDS011;28372;56.832;60.658;2023-08-08T03:46:26;3.33;;;1.60;;
42726;SDS011;28372;56.832;60.658;2023-08-08T03:48:54;3.40;;;1.50;;
42726;SDS011;28372;56.832;60.658;2023-08-08T03:51:22;3.42;;;1.50;;
42726;SDS011;28372;56.832;60.658;2023-08-08T03:53:50;4.30;;;1.67;;
42726;SDS011;28372;56.832;60.658;2023-08-08T03:56:23;4.72;;;1.98;;
42726;SDS011;28372;56.832;60.658;2023-08-08T03:58:52;2.58;;;1.60;;
42726;SDS011;28372;56.832;60.658;2023-08-08T04:01:23;2.70;;;1.48;;
42726;SDS011;28372;56.832;60.658;2023-08-08T04:03:55;3.17;;;1.27;;
42726;SDS011;28372;56.832;60.658;2023-08-08T04:06:23;3.22;;;1.33;;
42726;SDS011;28372;56.832;60.658;2023-08-08T04:08:50;2.95;;;1.20;;
42726;SDS011;28372;56.832;60.658;2023-08-08T04:11:18;2.92;;;1.40;;
42726;SDS011;28372;56.832;60.658;2023-08-08T04:13:46;3.63;;;1.50;;
42726;SDS011;28372;56.832;60.658;2023-08-08T04:16:14;4.03;;;1.23;;
42726;SDS011;28372;56.832;60.658;2023-08-08T04:18:41;3.67;;;1.40;;
42726;SDS011;28372;56.832;60.658;2023-08-08T04:21:09;6.05;;;1.92;;
42726;SDS011;28372;56.832;60.658;2023-08-08T04:23:37;5.00;;;2.13;;
42726;SDS011;28372;56.832;60.658;2023-08-08T04:26:05;3.80;;;1.40;;
42726;SDS011;28372;56.832;60.658;2023-08-08T04:28:32;2.90;;;1.40;;
42726;SDS011;28372;56.832;60.658;2023-08-08T04:31:00;3.47;;;1.42;;
42726;SDS011;28372;56.832;60.658;2023-08-08T04:33:28;3.00;;;1.58;;
42726;SDS011;28372;56.832;60.658;2023-08-08T04:35:56;2.97;;;1.80;;
42726;SDS011;28372;56.832;60.658;2023-08-08T04:38:24;4.43;;;1.90;;
42726;SDS011;28372;56.832;60.658;2023-08-08T04:40:51;3.22;;;1.80;;
42726;SDS011;28372;56.832;60.658;2023-08-08T04:43:19;3.60;;;2.33;;
42726;SDS011;28372;56.832;60.658;2023-08-08T04:45:46;6.05;;;2.72;;
42726;SDS011;28372;56.832;60.658;2023-08-08T04:48:14;4.72;;;2.67;;
42726;SDS011;28372;56.832;60.658;2023-08-08T04:50:42;5.53;;;2.72;;
42726;SDS011;28372;56.832;60.658;2023-08-08T04:53:10;5.28;;;3.10;;
42726;SDS011;28372;56.832;60.658;2023-08-08T04:55:37;4.88;;;3.30;;
42726;SDS011;28372;56.832;60.658;2023-08-08T04:58:05;7.28;;;3.58;;
42726;SDS011;28372;56.832;60.658;2023-08-08T05:00:33;5.80;;;3.90;;
42726;SDS011;28372;56.832;60.658;2023-08-08T05:03:01;8.13;;;4.30;;
42726;SDS011;28372;56.832;60.658;2023-08-08T05:05:29;8.45;;;4.55;;
42726;SDS011;28372;56.832;60.658;2023-08-08T05:07:57;7.72;;;4.47;;
42726;SDS011;28372;56.832;60.658;2023-08-08T05:10:24;8.77;;;4.88;;
42726;SDS011;28372;56.832;60.658;2023-08-08T05:12:52;7.57;;;4.35;;
42726;SDS011;28372;56.832;60.658;2023-08-08T05:15:20;8.40;;;4.72;;
42726;SDS011;28372;56.832;60.658;2023-08-08T05:17:48;10.70;;;6.32;;
42726;SDS011;28372;56.832;60.658;2023-08-08T05:20:15;7.60;;;5.20;;
42726;SDS011;28372;56.832;60.658;2023-08-08T05:22:43;7.60;;;5.70;;
42726;SDS011;28372;56.832;60.658;2023-08-08T05:25:11;8.15;;;5.13;;
42726;SDS011;28372;56.832;60.658;2023-08-08T05:27:39;14.00;;;5.28;;
42726;SDS011;28372;56.832;60.658;2023-08-08T05:30:07;12.20;;;5.55;;
42726;SDS011;28372;56.832;60.658;2023-08-08T05:32:35;8.95;;;5.28;;
42726;SDS011;28372;56.832;60.658;2023-08-08T05:35:03;8.70;;;5.32;;
42726;SDS011;28372;56.832;60.658;2023-08-08T05:37:31;9.05;;;5.65;;
42726;SDS011;28372;56.832;60.658;2023-08-08T05:39:59;7.90;;;5.65;;
42726;SDS011;28372;56.832;60.658;2023-08-08T05:42:29;8.38;;;5.40;;
42726;SDS011;28372;56.832;60.658;2023-08-08T05:44:59;7.90;;;5.32;;
42726;SDS011;28372;56.832;60.658;2023-08-08T05:47:31;10.50;;;5.28;;
42726;SDS011;28372;56.832;60.658;2023-08-08T05:50:00;8.23;;;5.07;;
42726;SDS011;28372;56.832;60.658;2023-08-08T05:52:29;9.10;;;5.85;;
42726;SDS011;28372;56.832;60.658;2023-08-08T05:54:57;9.10;;;6.35;;
42726;SDS011;28372;56.832;60.658;2023-08-08T05:57:29;9.32;;;6.88;;
42726;SDS011;28372;56.832;60.658;2023-08-08T05:59:57;9.75;;;6.57;;
42726;SDS011;28372;56.832;60.658;2023-08-08T06:02:32;11.57;;;6.70;;
42726;SDS011;28372;56.832;60.658;2023-08-08T06:05:00;9.63;;;6.47;;
42726;SDS011;28372;56.832;60.658;2023-08-08T06:07:29;10.45;;;6.97;;
42726;SDS011;28372;56.832;60.658;2023-08-08T06:09:57;10.93;;;7.15;;
42726;SDS011;28372;56.832;60.658;2023-08-08T06:12:24;12.60;;;7.20;;
42726;SDS011;28372;56.832;60.658;2023-08-08T06:14:52;12.13;;;7.93;;
42726;SDS011;28372;56.832;60.658;2023-08-08T06:17:20;14.57;;;8.38;;
42726;SDS011;28372;56.832;60.658;2023-08-08T06:19:48;13.90;;;8.40;;
42726;SDS011;28372;56.832;60.658;2023-08-08T06:22:17;15.55;;;9.73;;
42726;SDS011;28372;56.832;60.658;2023-08-08T06:24:45;14.90;;;9.13;;
42726;SDS011;28372;56.832;60.658;2023-08-08T06:27:13;15.90;;;9.45;;
42726;SDS011;28372;56.832;60.658;2023-08-08T06:29:41;16.60;;;9.90;;
42726;SDS011;28372;56.832;60.658;2023-08-08T06:32:09;15.80;;;9.50;;
42726;SDS011;28372;56.832;60.658;2023-08-08T06:34:37;21.52;;;10.35;;
42726;SDS011;28372;56.832;60.658;2023-08-08T06:37:04;18.63;;;11.38;;
42726;SDS011;28372;56.832;60.658;2023-08-08T06:39:32;19.80;;;11.00;;
42726;SDS011;28372;56.832;60.658;2023-08-08T06:42:01;14.88;;;9.25;;
42726;SDS011;28372;56.832;60.658;2023-08-08T06:44:41;14.35;;;9.30;;
42726;SDS011;28372;56.832;60.658;2023-08-08T06:47:12;16.52;;;9.30;;
42726;SDS011;28372;56.832;60.658;2023-08-08T06:49:39;13.55;;;8.82;;
42726;SDS011;28372;56.832;60.658;2023-08-08T06:52:07;15.65;;;9.25;;
42726;SDS011;28372;56.832;60.658;2023-08-08T06:54:35;15.23;;;9.45;;
42726;SDS011;28372;56.832;60.658;2023-08-08T06:57:03;13.70;;;9.98;;
42726;SDS011;28372;56.832;60.658;2023-08-08T06:59:31;14.65;;;9.80;;
42726;SDS011;28372;56.832;60.658;2023-08-08T07:01:59;15.50;;;10.02;;
42726;SDS011;28372;56.832;60.658;2023-08-08T07:04:27;17.75;;;10.30;;
42726;SDS011;28372;56.832;60.658;2023-08-08T07:06:54;14.07;;;7.35;;
42726;SDS011;28372;56.832;60.658;2023-08-08T07:09:22;12.65;;;8.52;;
42726;SDS011;28372;56.832;60.658;2023-08-08T07:11:52;14.23;;;8.98;;
42726;SDS011;28372;56.832;60.658;2023-08-08T07:14:19;16.83;;;8.82;;
42726;SDS011;28372;56.832;60.658;2023-08-08T07:16:47;15.40;;;9.80;;
42726;SDS011;28372;56.832;60.658;2023-08-08T07:19:15;17.50;;;9.80;;
42726;SDS011;28372;56.832;60.658;2023-08-08T07:21:43;18.35;;;10.32;;
42726;SDS011;28372;56.832;60.658;2023-08-08T07:24:11;18.30;;;10.48;;
42726;SDS011;28372;56.832;60.658;2023-08-08T07:26:39;21.80;;;10.18;;
42726;SDS011;28372;56.832;60.658;2023-08-08T07:29:07;24.42;;;11.75;;
42726;SDS011;28372;56.832;60.658;2023-08-08T07:31:34;22.00;;;11.75;;
42726;SDS011;28372;56.832;60.658;2023-08-08T07:34:03;18.70;;;11.32;;
42726;SDS011;28372;56.832;60.658;2023-08-08T07:36:30;21.63;;;11.38;;
42726;SDS011;28372;56.832;60.658;2023-08-08T07:38:58;20.75;;;10.23;;
42726;SDS011;28372;56.832;60.658;2023-08-08T07:41:29;19.17;;;9.48;;
42726;SDS011;28372;56.832;60.658;2023-08-08T07:43:57;18.92;;;10.07;;
42726;SDS011;28372;56.832;60.658;2023-08-08T07:46:25;17.35;;;9.57;;
42726;SDS011;28372;56.832;60.658;2023-08-08T07:48:52;18.30;;;8.63;;
42726;SDS011;28372;56.832;60.658;2023-08-08T07:51:20;14.50;;;8.30;;
42726;SDS011;28372;56.832;60.658;2023-08-08T07:53:48;16.77;;;8.18;;
42726;SDS011;28372;56.832;60.658;2023-08-08T07:56:16;16.67;;;8.63;;
42726;SDS011;28372;56.832;60.658;2023-08-08T07:58:44;17.08;;;9.32;;
42726;SDS011;28372;56.832;60.658;2023-08-08T08:01:12;18.67;;;8.43;;
42726;SDS011;28372;56.832;60.658;2023-08-08T08:03:40;14.10;;;8.15;;
42726;SDS011;28372;56.832;60.658;2023-08-08T08:06:09;17.33;;;7.43;;
42726;SDS011;28372;56.832;60.658;2023-08-08T08:08:36;10.80;;;6.18;;
42726;SDS011;28372;56.832;60.658;2023-08-08T08:11:04;10.75;;;5.40;;
42726;SDS011;28372;56.832;60.658;2023-08-08T08:13:32;11.38;;;5.53;;
42726;SDS011;28372;56.832;60.658;2023-08-08T08:16:00;10.57;;;6.07;;
42726;SDS011;28372;56.832;60.658;2023-08-08T08:18:27;10.90;;;5.20;;
42726;SDS011;28372;56.832;60.658;2023-08-08T08:20:55;11.50;;;5.80;;
42726;SDS011;28372;56.832;60.658;2023-08-08T08:23:23;11.25;;;5.90;;
42726;SDS011;28372;56.832;60.658;2023-08-08T08:25:51;11.93;;;6.45;;
42726;SDS011;28372;56.832;60.658;2023-08-08T08:28:19;11.93;;;6.05;;
42726;SDS011;28372;56.832;60.658;2023-08-08T08:30:47;11.45;;;6.28;;
42726;SDS011;28372;56.832;60.658;2023-08-08T08:33:15;15.57;;;7.05;;
42726;SDS011;28372;56.832;60.658;2023-08-08T08:35:43;11.23;;;5.93;;
42726;SDS011;28372;56.832;60.658;2023-08-08T08:38:11;9.88;;;6.10;;
42726;SDS011;28372;56.832;60.658;2023-08-08T08:40:40;10.63;;;6.30;;
42726;SDS011;28372;56.832;60.658;2023-08-08T08:43:08;12.77;;;7.32;;
42726;SDS011;28372;56.832;60.658;2023-08-08T08:45:37;14.52;;;7.15;;
42726;SDS011;28372;56.832;60.658;2023-08-08T08:48:09;17.30;;;7.03;;
42726;SDS011;28372;56.832;60.658;2023-08-08T08:50:40;14.02;;;7.00;;
42726;SDS011;28372;56.832;60.658;2023-08-08T08:53:11;12.43;;;6.70;;
42726;SDS011;28372;56.832;60.658;2023-08-08T08:55:40;14.73;;;7.55;;
42726;SDS011;28372;56.832;60.658;2023-08-08T08:58:09;15.65;;;6.93;;
42726;SDS011;28372;56.832;60.658;2023-08-08T09:00:38;17.10;;;7.45;;
42726;SDS011;28372;56.832;60.658;2023-08-08T09:03:07;15.55;;;7.25;;
42726;SDS011;28372;56.832;60.658;2023-08-08T09:05:35;12.85;;;7.25;;
42726;SDS011;28372;56.832;60.658;2023-08-08T09:08:05;13.20;;;6.80;;
42726;SDS011;28372;56.832;60.658;2023-08-08T09:10:33;12.60;;;5.82;;
42726;SDS011;28372;56.832;60.658;2023-08-08T09:13:02;14.40;;;6.35;;
42726;SDS011;28372;56.832;60.658;2023-08-08T09:15:33;16.02;;;7.28;;
42726;SDS011;28372;56.832;60.658;2023-08-08T09:18:01;12.63;;;6.78;;
42726;SDS011;28372;56.832;60.658;2023-08-08T09:20:29;15.02;;;6.45;;
42726;SDS011;28372;56.832;60.658;2023-08-08T09:22:57;13.35;;;6.35;;
42726;SDS011;28372;56.832;60.658;2023-08-08T09:25:25;11.77;;;5.75;;
42726;SDS011;28372;56.832;60.658;2023-08-08T09:27:54;10.20;;;6.00;;
42726;SDS011;28372;56.832;60.658;2023-08-08T09:30:22;11.85;;;5.78;;
42726;SDS011;28372;56.832;60.658;2023-08-08T09:32:50;14.65;;;6.22;;
42726;SDS011;28372;56.832;60.658;2023-08-08T09:35:18;11.52;;;6.03;;
42726;SDS011;28372;56.832;60.658;2023-08-08T09:37:46;13.65;;;6.20;;
42726;SDS011;28372;56.832;60.658;2023-08-08T09:40:14;12.75;;;6.43;;
42726;SDS011;28372;56.832;60.658;2023-08-08T09:42:43;13.00;;;6.20;;
42726;SDS011;28372;56.832;60.658;2023-08-08T09:45:10;80.78;;;10.43;;
42726;SDS011;28372;56.832;60.658;2023-08-08T09:47:38;12.20;;;6.45;;
42726;SDS011;28372;56.832;60.658;2023-08-08T09:50:06;12.05;;;7.30;;
42726;SDS011;28372;56.832;60.658;2023-08-08T09:52:35;12.93;;;7.30;;
42726;SDS011;28372;56.832;60.658;2023-08-08T09:55:06;14.85;;;7.53;;
42726;SDS011;28372;56.832;60.658;2023-08-08T09:57:34;11.65;;;7.28;;
42726;SDS011;28372;56.832;60.658;2023-08-08T10:00:04;11.70;;;7.43;;
42726;SDS011;28372;56.832;60.658;2023-08-08T10:05:05;11.13;;;7.85;;
42726;SDS011;28372;56.832;60.658;2023-08-08T10:07:33;12.15;;;7.93;;
42726;SDS011;28372;56.832;60.658;2023-08-08T10:10:00;11.07;;;7.88;;
42726;SDS011;28372;56.832;60.658;2023-08-08T10:12:30;12.38;;;8.27;;
42726;SDS011;28372;56.832;60.658;2023-08-08T10:14:58;15.63;;;8.32;;
42726;SDS011;28372;56.832;60.658;2023-08-08T10:17:26;15.05;;;7.90;;
42726;SDS011;28372;56.832;60.658;2023-08-08T10:19:55;17.15;;;7.50;;
42726;SDS011;28372;56.832;60.658;2023-08-08T10:22:24;11.75;;;6.13;;
42726;SDS011;28372;56.832;60.658;2023-08-08T10:24:52;11.32;;;5.80;;
42726;SDS011;28372;56.832;60.658;2023-08-08T10:27:31;9.90;;;5.15;;
42726;SDS011;28372;56.832;60.658;2023-08-08T10:30:03;11.38;;;5.38;;
42726;SDS011;28372;56.832;60.658;2023-08-08T10:32:41;11.93;;;5.50;;
42726;SDS011;28372;56.832;60.658;2023-08-08T10:35:18;7.97;;;4.22;;
42726;SDS011;28372;56.832;60.658;2023-08-08T10:37:53;11.18;;;4.60;;
42726;SDS011;28372;56.832;60.658;2023-08-08T10:40:21;8.82;;;3.85;;
42726;SDS011;28372;56.832;60.658;2023-08-08T10:42:51;9.55;;;3.92;;
42726;SDS011;28372;56.832;60.658;2023-08-08T10:45:19;8.02;;;3.72;;
42726;SDS011;28372;56.832;60.658;2023-08-08T10:47:47;9.13;;;3.45;;
42726;SDS011;28372;56.832;60.658;2023-08-08T10:50:16;6.65;;;3.20;;
42726;SDS011;28372;56.832;60.658;2023-08-08T10:55:33;5.03;;;2.58;;
42726;SDS011;28372;56.832;60.658;2023-08-08T10:58:07;6.45;;;2.90;;
42726;SDS011;28372;56.832;60.658;2023-08-08T11:00:37;6.57;;;2.92;;
42726;SDS011;28372;56.832;60.658;2023-08-08T11:03:07;7.97;;;2.83;;
42726;SDS011;28372;56.832;60.658;2023-08-08T11:05:37;6.88;;;2.97;;
42726;SDS011;28372;56.832;60.658;2023-08-08T11:08:06;5.80;;;2.95;;
42726;SDS011;28372;56.832;60.658;2023-08-08T11:10:39;7.72;;;3.28;;
42726;SDS011;28372;56.832;60.658;2023-08-08T11:13:08;4.72;;;2.90;;
42726;SDS011;28372;56.832;60.658;2023-08-08T11:15:36;6.57;;;2.85;;
42726;SDS011;28372;56.832;60.658;2023-08-08T11:18:06;5.00;;;2.80;;
42726;SDS011;28372;56.832;60.658;2023-08-08T11:20:35;5.32;;;2.45;;
42726;SDS011;28372;56.832;60.658;2023-08-08T11:23:04;4.57;;;2.60;;
42726;SDS011;28372;56.832;60.658;2023-08-08T11:25:33;5.40;;;2.67;;
42726;SDS011;28372;56.832;60.658;2023-08-08T11:28:01;5.07;;;2.70;;
42726;SDS011;28372;56.832;60.658;2023-08-08T11:30:30;5.70;;;2.60;;
42726;SDS011;28372;56.832;60.658;2023-08-08T11:33:01;5.10;;;2.72;;
42726;SDS011;28372;56.832;60.658;2023-08-08T11:35:32;4.22;;;2.50;;
42726;SDS011;28372;56.832;60.658;2023-08-08T11:38:01;5.13;;;2.50;;
42726;SDS011;28372;56.832;60.658;2023-08-08T11:40:31;4.35;;;2.78;;
42726;SDS011;28372;56.832;60.658;2023-08-08T11:42:59;4.72;;;2.30;;
42726;SDS011;28372;56.832;60.658;2023-08-08T11:45:28;3.85;;;2.40;;
42726;SDS011;28372;56.832;60.658;2023-08-08T11:47:56;4.45;;;2.50;;
42726;SDS011;28372;56.832;60.658;2023-08-08T11:50:24;5.15;;;2.60;;
42726;SDS011;28372;56.832;60.658;2023-08-08T11:52:54;5.47;;;2.55;;
42726;SDS011;28372;56.832;60.658;2023-08-08T11:55:31;8.23;;;2.50;;
42726;SDS011;28372;56.832;60.658;2023-08-08T11:58:00;7.18;;;2.30;;
42726;SDS011;28372;56.832;60.658;2023-08-08T12:00:29;4.05;;;2.25;;
42726;SDS011;28372;56.832;60.658;2023-08-08T12:03:00;5.68;;;2.20;;
42726;SDS011;28372;56.832;60.658;2023-08-08T12:05:29;7.40;;;2.40;;
42726;SDS011;28372;56.832;60.658;2023-08-08T12:07:58;4.57;;;2.45;;
42726;SDS011;28372;56.832;60.658;2023-08-08T12:10:26;5.53;;;2.47;;
42726;SDS011;28372;56.832;60.658;2023-08-08T12:12:55;4.35;;;2.47;;
42726;SDS011;28372;56.832;60.658;2023-08-08T12:15:29;3.92;;;2.10;;
42726;SDS011;28372;56.832;60.658;2023-08-08T12:17:58;5.38;;;2.33;;
42726;SDS011;28372;56.832;60.658;2023-08-08T12:20:27;5.13;;;2.50;;
42726;SDS011;28372;56.832;60.658;2023-08-08T12:22:57;4.30;;;2.40;;
42726;SDS011;28372;56.832;60.658;2023-08-08T12:25:25;6.00;;;2.20;;
42726;SDS011;28372;56.832;60.658;2023-08-08T12:27:53;5.47;;;2.25;;
42726;SDS011;28372;56.832;60.658;2023-08-08T12:30:21;4.70;;;2.40;;
42726;SDS011;28372;56.832;60.658;2023-08-08T12:32:49;5.35;;;2.50;;
42726;SDS011;28372;56.832;60.658;2023-08-08T12:35:17;8.20;;;2.78;;
42726;SDS011;28372;56.832;60.658;2023-08-08T12:37:44;4.80;;;2.80;;
42726;SDS011;28372;56.832;60.658;2023-08-08T12:40:12;7.72;;;2.80;;
42726;SDS011;28372;56.832;60.658;2023-08-08T12:42:40;5.72;;;2.90;;
42726;SDS011;28372;56.832;60.658;2023-08-08T12:45:09;4.32;;;2.35;;
42726;SDS011;28372;56.832;60.658;2023-08-08T12:47:37;4.53;;;2.25;;
42726;SDS011;28372;56.832;60.658;2023-08-08T12:50:06;5.13;;;2.35;;
42726;SDS011;28372;56.832;60.658;2023-08-08T12:52:38;4.37;;;2.30;;
42726;SDS011;28372;56.832;60.658;2023-08-08T12:55:06;5.18;;;2.38;;
42726;SDS011;28372;56.832;60.658;2023-08-08T12:57:35;3.88;;;2.00;;
42726;SDS011;28372;56.832;60.658;2023-08-08T13:00:04;4.53;;;2.63;;
42726;SDS011;28372;56.832;60.658;2023-08-08T13:02:37;3.90;;;2.30;;
42726;SDS011;28372;56.832;60.658;2023-08-08T13:05:07;4.63;;;2.40;;
42726;SDS011;28372;56.832;60.658;2023-08-08T13:07:37;4.07;;;2.50;;
42726;SDS011;28372;56.832;60.658;2023-08-08T13:10:07;3.88;;;2.33;;
42726;SDS011;28372;56.832;60.658;2023-08-08T13:12:35;6.13;;;2.42;;
42726;SDS011;28372;56.832;60.658;2023-08-08T13:15:03;4.38;;;2.72;;
42726;SDS011;28372;56.832;60.658;2023-08-08T13:17:34;5.47;;;2.63;;
42726;SDS011;28372;56.832;60.658;2023-08-08T13:20:03;5.90;;;2.10;;
42726;SDS011;28372;56.832;60.658;2023-08-08T13:22:31;5.88;;;2.20;;
42726;SDS011;28372;56.832;60.658;2023-08-08T13:24:59;6.13;;;2.47;;
42726;SDS011;28372;56.832;60.658;2023-08-08T13:27:29;5.30;;;2.10;;
42726;SDS011;28372;56.832;60.658;2023-08-08T13:29:57;4.78;;;2.20;;
42726;SDS011;28372;56.832;60.658;2023-08-08T13:32:26;5.68;;;2.40;;
42726;SDS011;28372;56.832;60.658;2023-08-08T13:34:53;7.28;;;2.30;;
42726;SDS011;28372;56.832;60.658;2023-08-08T13:37:21;7.07;;;2.20;;
42726;SDS011;28372;56.832;60.658;2023-08-08T13:39:49;6.70;;;2.60;;
42726;SDS011;28372;56.832;60.658;2023-08-08T13:42:17;5.65;;;2.38;;
42726;SDS011;28372;56.832;60.658;2023-08-08T13:44:45;5.15;;;2.60;;
42726;SDS011;28372;56.832;60.658;2023-08-08T13:47:14;6.80;;;2.45;;
42726;SDS011;28372;56.832;60.658;2023-08-08T13:49:42;7.68;;;2.30;;
42726;SDS011;28372;56.832;60.658;2023-08-08T13:52:11;5.07;;;2.78;;
42726;SDS011;28372;56.832;60.658;2023-08-08T13:54:39;6.45;;;2.50;;
42726;SDS011;28372;56.832;60.658;2023-08-08T13:57:07;6.38;;;2.80;;
42726;SDS011;28372;56.832;60.658;2023-08-08T13:59:35;8.32;;;2.90;;
42726;SDS011;28372;56.832;60.658;2023-08-08T14:02:02;6.75;;;2.90;;
42726;SDS011;28372;56.832;60.658;2023-08-08T14:04:31;6.05;;;2.78;;
42726;SDS011;28372;56.832;60.658;2023-08-08T14:06:59;9.15;;;2.95;;
42726;SDS011;28372;56.832;60.658;2023-08-08T14:09:26;8.27;;;3.00;;
42726;SDS011;28372;56.832;60.658;2023-08-08T14:11:54;7.72;;;3.17;;
42726;SDS011;28372;56.832;60.658;2023-08-08T14:14:22;8.65;;;2.90;;
42726;SDS011;28372;56.832;60.658;2023-08-08T14:16:50;10.60;;;2.90;;
42726;SDS011;28372;56.832;60.658;2023-08-08T14:19:20;7.13;;;2.80;;
42726;SDS011;28372;56.832;60.658;2023-08-08T14:21:48;6.53;;;2.88;;
42726;SDS011;28372;56.832;60.658;2023-08-08T14:24:15;7.78;;;2.55;;
42726;SDS011;28372;56.832;60.658;2023-08-08T14:26:44;4.85;;;2.75;;
42726;SDS011;28372;56.832;60.658;2023-08-08T14:29:14;8.40;;;3.10;;
42726;SDS011;28372;56.832;60.658;2023-08-08T14:31:42;11.00;;;3.40;;
42726;SDS011;28372;56.832;60.658;2023-08-08T14:34:29;12.95;;;3.50;;
42726;SDS011;28372;56.832;60.658;2023-08-08T14:36:58;7.95;;;3.30;;
42726;SDS011;28372;56.832;60.658;2023-08-08T14:39:28;8.88;;;3.50;;
42726;SDS011;28372;56.832;60.658;2023-08-08T14:41:56;11.60;;;3.55;;
42726;SDS011;28372;56.832;60.658;2023-08-08T14:44:24;11.40;;;3.70;;